Curran, MI

12:55 AM EST on February 09, 2016 (GMT -0500)
MesoWest | | Change Station
CLOSE
Current Station
Personal Weather Station
Location: Curran, MI
Elevation: 901 ft
Nearby Weather Stations

Elev 901 ft 44.73 °N, 83.81 °W | Updated 45 minutes ago

Snow
Snow
31 °F
Feels Like 21 °F
N
13
Wind Variable Wind from NNW
Gusts 19.0 mph

Today
High -- | Low -- °F
--% Chance of Precip.
Yesterday
High -- | Low -- °F
Precip. -- in
Pressure 29.56 in
Visibility 4.0 miles
Clouds Mostly Cloudy 1100 ft
Mostly Cloudy 3100 ft
Overcast 5500 ft
Windchill 21 °F
Dew Point 29 °F
Humidity 93%
Rainfall in
Snow Depth Not available.
7:44 AM 5:54 PM
New Moon, 1% visible
SPECI KAPN 090546Z AUTO 33014G20KT 4SM -SN BR BKN011 BKN031 OVC055 M01/M02 A2956 RMK AO2 P0000 T10061022
Pressure 29.56 in
Visibility 4.0 miles
Clouds Mostly Cloudy 1100 ft
Mostly Cloudy 3100 ft
Overcast 5500 ft
Windchill 21 °F
Dew Point 29 °F
Humidity 93%
Rainfall in
Snow Depth Not available.
7:44 AM 5:54 PM
New Moon, 1% visible
SPECI KAPN 090546Z AUTO 33014G20KT 4SM -SN BR BKN011 BKN031 OVC055 M01/M02 A2956 RMK AO2 P0000 T10061022

10-Day Weather Forecast

Almanac

Astronomy

Feb. 09, 2016 Rise Set
Actual Time
Civil Twilight
Nautical Twilight
Astronomical Twilight
Moon
Length of Visible Light
Length of Day
Tomorrow will be .
, % of the Moon is Illuminated

Today's Extremes

State Highs State Lows

Community

WunderPhotos

Upload Photos

1,891,566 photos uploaded!

WunderBlog® & News

Nearby

Air Quality

  Air Quality AQ Index Pollutant
Not available.

Snow Depth

Station Depth Elevation

Earthquake Activity

City Distance Mag. Time & Date
Minimum magnitude displayed is 2.5.

Coastal Water Temperatures

Place Temperature

Stations

Nearby Weather Stations

Station Location Temp. Windchill Dew Point Humidity Wind Precip. Elev Updated Type
                   

Watches & Warnings

There are currently no watches in effect.